Time;durP1;ratioP1;P1;durP2;ratioP2;P2;SDS_P1;SDS_P2;PMS_P1;PMS_P2;Temp;Humidity;BMP_temperature;BMP_pressure;BME280_temperature;BME280_humidity;BME280_pressure;Samples;Min_cycle;Max_cycle;Signal;HPM_P1;HPM_P2
2023/12/19 00:00:57;;;;;;;7.80;5.90;;;;;;;7.00;84.49;99502.54;105693;1253;73642;-25
2023/12/19 00:03:24;;;;;;;7.00;5.70;;;;;;;6.85;85.03;99501.55;105702;1254;74392;-25
2023/12/19 00:05:52;;;;;;;9.40;6.10;;;;;;;6.53;86.38;99492.32;105635;1254;72520;-25
2023/12/19 00:08:19;;;;;;;8.00;5.20;;;;;;;6.40;87.56;99492.02;105688;1258;62040;-25
2023/12/19 00:10:45;;;;;;;6.40;4.60;;;;;;;6.84;85.96;99488.13;105718;1254;61107;-24
2023/12/19 00:13:12;;;;;;;7.00;4.90;;;;;;;6.98;84.97;99490.57;105530;1253;73813;-24
2023/12/19 00:15:40;;;;;;;7.10;5.60;;;;;;;6.82;85.27;99487.89;105522;1254;74222;-24
2023/12/19 00:18:07;;;;;;;7.20;4.70;;;;;;;6.63;86.04;99485.16;105595;1257;72652;-24
2023/12/19 00:20:34;;;;;;;8.70;5.20;;;;;;;6.42;86.97;99489.85;105634;1257;61844;-25
2023/12/19 00:23:00;;;;;;;6.10;4.10;;;;;;;6.27;88.15;99491.17;105662;1258;61099;-24
2023/12/19 00:25:29;;;;;;;5.90;4.10;;;;;;;6.78;86.40;99490.38;105700;1253;73829;-25
2023/12/19 00:27:58;;;;;;;5.30;3.90;;;;;;;6.95;85.04;99486.29;105726;1253;74441;-24
2023/12/19 00:30:26;;;;;;;6.10;4.30;;;;;;;6.88;84.95;99483.56;105714;1254;72463;-25
2023/12/19 00:32:53;;;;;;;6.00;4.60;;;;;;;6.70;85.54;99484.80;105709;1254;61141;-25
2023/12/19 00:35:20;;;;;;;6.50;4.70;;;;;;;6.49;86.42;99488.08;105721;1257;61100;-25
2023/12/19 00:37:47;;;;;;;5.80;3.90;;;;;;;6.30;87.63;99486.04;105628;1253;73743;-25
2023/12/19 00:40:14;;;;;;;5.60;4.00;;;;;;;6.76;86.30;99492.37;105713;1254;74389;-25
2023/12/19 00:42:42;;;;;;;5.60;3.70;;;;;;;7.14;84.25;99491.35;105727;1253;72535;-25
2023/12/19 00:45:10;;;;;;;6.00;4.30;;;;;;;7.15;83.82;99492.16;105722;1253;61074;-25
2023/12/19 00:47:38;;;;;;;5.50;4.50;;;;;;;6.95;84.29;99489.34;105689;1259;61170;-25
2023/12/19 00:50:07;;;;;;;8.80;4.90;;;;;;;6.67;85.21;99485.68;105721;1253;73809;-25
2023/12/19 00:52:35;;;;;;;6.00;3.80;;;;;;;6.49;86.39;99486.71;105729;1254;74407;-25
2023/12/19 00:55:02;;;;;;;5.70;3.70;;;;;;;6.87;85.76;99481.06;105586;1253;72574;-25
2023/12/19 00:57:29;;;;;;;5.40;4.10;;;;;;;7.31;83.64;99476.20;105601;1255;61095;-25
2023/12/19 00:59:56;;;;;;;4.90;4.10;;;;;;;7.29;83.01;99474.91;105576;1257;61165;-25
2023/12/19 01:02:23;;;;;;;5.40;4.10;;;;;;;7.12;83.37;99470.94;105503;1253;73737;-25
2023/12/19 01:04:50;;;;;;;5.50;4.20;;;;;;;6.88;84.23;99461.98;105621;1253;73455;-25
2023/12/19 01:07:17;;;;;;;7.80;5.10;;;;;;;6.64;85.16;99464.45;105715;1253;73037;-25
2023/12/19 01:09:44;;;;;;;3.90;2.80;;;;;;;6.55;85.95;99462.71;105522;1253;62045;-25
2023/12/19 01:12:11;;;;;;;4.20;3.00;;;;;;;7.17;84.60;99459.07;105711;1253;61224;-25
2023/12/19 01:14:38;;;;;;;4.10;3.30;;;;;;;7.52;82.59;99450.69;105573;1253;73722;-25
2023/12/19 01:17:05;;;;;;;4.30;3.40;;;;;;;7.49;82.26;99446.80;105690;1258;74182;-25
2023/12/19 01:19:32;;;;;;;4.90;3.70;;;;;;;7.30;82.71;99445.35;105646;1254;72613;-25
2023/12/19 01:21:59;;;;;;;5.60;3.80;;;;;;;7.00;83.57;99436.98;105347;1254;61201;-25
2023/12/19 01:24:26;;;;;;;5.90;4.40;;;;;;;6.78;84.30;99432.22;105459;1259;61119;-25
2023/12/19 01:26:53;;;;;;;4.00;2.90;;;;;;;6.60;85.81;99432.23;105466;1253;73838;-25
2023/12/19 01:29:20;;;;;;;4.30;3.10;;;;;;;7.26;84.08;99434.90;105678;1253;74348;-25
2023/12/19 01:31:47;;;;;;;3.50;2.90;;;;;;;7.66;82.20;99429.11;105654;1253;72534;-25
2023/12/19 01:34:14;;;;;;;4.40;3.30;;;;;;;7.59;81.87;99423.52;105748;1258;61514;-25
2023/12/19 01:36:42;;;;;;;3.30;3.00;;;;;;;7.35;82.37;99423.78;105478;1256;61078;-25
2023/12/19 01:39:22;;;;;;;4.70;3.50;;;;;;;7.04;83.04;99416.87;105698;1253;74509;-25
2023/12/19 01:41:49;;;;;;;4.90;3.70;;;;;;;6.80;83.84;99413.46;105768;1253;74385;-25
2023/12/19 01:44:19;;;;;;;4.10;2.90;;;;;;;6.63;84.57;99405.30;105679;1253;72584;-26
2023/12/19 01:46:46;;;;;;;3.20;2.70;;;;;;;7.19;83.74;99406.77;105696;1253;61147;-26
2023/12/19 01:49:14;;;;;;;3.80;2.80;;;;;;;7.50;82.15;99407.47;105759;1257;61144;-26
2023/12/19 01:51:41;;;;;;;5.00;3.50;;;;;;;7.45;82.06;99403.48;105626;1253;73252;-25
2023/12/19 01:54:08;;;;;;;5.50;3.70;;;;;;;7.21;82.37;99404.76;105738;1259;74250;-25
2023/12/19 01:56:36;;;;;;;5.40;4.30;;;;;;;6.96;83.14;99402.84;105565;1254;72604;-25
2023/12/19 01:59:04;;;;;;;3.80;2.80;;;;;;;6.63;84.70;99401.19;105601;1254;62542;-26
2023/12/19 02:01:33;;;;;;;3.50;2.80;;;;;;;6.96;84.39;99400.04;105520;1254;61129;-26
2023/12/19 02:04:01;;;;;;;5.60;3.20;;;;;;;7.31;82.73;99392.59;105625;1253;73914;-26
2023/12/19 02:06:28;;;;;;;4.60;3.50;;;;;;;7.27;82.50;99391.42;105683;1254;74100;-25
2023/12/19 02:08:55;;;;;;;4.40;3.40;;;;;;;7.05;83.26;99391.93;105553;1254;73220;-25
2023/12/19 02:11:25;;;;;;;4.60;3.60;;;;;;;6.79;84.29;99387.30;105482;1253;61145;-26
2023/12/19 02:13:51;;;;;;;3.80;2.80;;;;;;;6.59;85.07;99389.17;105521;1258;61105;-25
2023/12/19 02:16:18;;;;;;;3.70;2.90;;;;;;;7.00;84.80;99392.41;105716;1253;73813;-26
2023/12/19 02:19:00;;;;;;;4.00;2.70;;;;;;;7.41;82.92;99387.83;105754;1253;74738;-25
2023/12/19 02:21:28;;;;;;;2.70;2.50;;;;;;;7.42;82.63;99390.06;105727;1253;72710;-26
2023/12/19 02:23:55;;;;;;;4.40;3.50;;;;;;;7.24;82.63;99387.69;105667;1256;61111;-25
2023/12/19 02:26:23;;;;;;;4.40;3.60;;;;;;;6.98;83.36;99385.83;105659;1258;61147;-26
2023/12/19 02:28:52;;;;;;;4.20;3.10;;;;;;;6.67;84.48;99379.00;105638;1259;73658;-26
2023/12/19 02:31:20;;;;;;;3.70;3.00;;;;;;;6.97;84.49;99371.84;105641;1253;74711;-25
2023/12/19 02:33:47;;;;;;;3.80;3.40;;;;;;;7.23;83.29;99362.36;105513;1253;72485;-26
2023/12/19 02:36:15;;;;;;;8.30;2.80;;;;;;;7.19;83.01;99356.42;105545;1253;61054;-26
2023/12/19 02:38:43;;;;;;;4.50;3.20;;;;;;;6.80;84.32;99350.11;105642;1259;61186;-26
2023/12/19 02:41:10;;;;;;;4.20;3.60;;;;;;;6.61;85.23;99343.17;105708;1253;73690;-26
2023/12/19 02:43:37;;;;;;;3.50;2.40;;;;;;;6.46;85.94;99339.77;105704;1253;74158;-26
2023/12/19 02:46:22;;;;;;;3.60;2.40;;;;;;;7.01;84.59;99338.52;105593;1254;72467;-26
2023/12/19 02:48:49;;;;;;;5.80;2.90;;;;;;;7.33;83.06;99340.83;105713;1253;60989;-26
2023/12/19 02:51:18;;;;;;;3.70;3.00;;;;;;;7.14;83.14;99341.51;105705;1259;61098;-26
2023/12/19 02:53:46;;;;;;;4.40;3.10;;;;;;;6.98;83.68;99338.38;105689;1254;73904;-26
2023/12/19 02:56:13;;;;;;;4.60;3.20;;;;;;;6.77;84.13;99336.33;105713;1259;74293;-26
2023/12/19 02:58:40;;;;;;;3.30;2.30;;;;;;;6.53;85.05;99339.48;105616;1253;73058;-26
2023/12/19 03:01:07;;;;;;;3.00;2.50;;;;;;;6.94;84.39;99334.08;105615;1254;61125;-26
2023/12/19 03:03:35;;;;;;;4.20;3.00;;;;;;;7.21;83.21;99325.00;105612;1259;61120;-26
2023/12/19 03:06:02;;;;;;;3.80;2.60;;;;;;;7.13;82.97;99324.45;105694;1253;73708;-26
2023/12/19 03:08:29;;;;;;;3.40;2.70;;;;;;;7.01;83.14;99323.14;105780;1253;74345;-26
2023/12/19 03:10:56;;;;;;;4.80;3.10;;;;;;;6.71;84.06;99320.81;105774;1253;72761;-26
2023/12/19 03:13:23;;;;;;;2.80;2.30;;;;;;;6.55;84.68;99319.90;105733;1257;61941;-26
2023/12/19 03:15:49;;;;;;;3.90;2.70;;;;;;;6.82;84.40;99307.40;105744;1254;61179;-26
2023/12/19 03:18:16;;;;;;;3.20;2.30;;;;;;;7.23;82.73;99302.59;105734;1253;73775;-26
2023/12/19 03:20:43;;;;;;;3.70;2.70;;;;;;;7.16;82.47;99303.22;105750;1257;74297;-26
2023/12/19 03:23:10;;;;;;;4.80;2.90;;;;;;;6.84;83.44;99298.81;105523;1255;71657;-26
2023/12/19 03:25:37;;;;;;;4.50;3.50;;;;;;;6.47;85.12;99292.09;105539;1253;61145;-26
2023/12/19 03:28:04;;;;;;;4.00;2.60;;;;;;;6.45;85.23;99297.21;105728;1257;61182;-26
2023/12/19 03:30:31;;;;;;;4.30;2.80;;;;;;;6.79;84.47;99293.58;105660;1259;73920;-26
2023/12/19 03:32:58;;;;;;;4.20;2.70;;;;;;;7.13;82.95;99305.64;105704;1257;74246;-27
2023/12/19 03:35:25;;;;;;;4.60;2.60;;;;;;;7.05;82.85;99318.56;105684;1253;72646;-27
2023/12/19 03:37:52;;;;;;;3.00;2.70;;;;;;;6.79;83.51;99322.22;105598;1253;61156;-26
2023/12/19 03:40:18;;;;;;;5.50;3.20;;;;;;;6.56;84.43;99321.92;105623;1259;61102;-26
2023/12/19 03:42:45;;;;;;;4.90;3.50;;;;;;;6.32;85.50;99323.14;105497;1258;73812;-26
2023/12/19 03:45:13;;;;;;;4.80;3.50;;;;;;;6.67;84.93;99322.62;105655;1257;74207;-27
2023/12/19 03:47:40;;;;;;;5.60;4.00;;;;;;;6.86;83.77;99316.95;105545;1254;72785;-26
2023/12/19 03:50:08;;;;;;;4.20;3.50;;;;;;;6.79;83.93;99304.66;105590;1254;61145;-27
2023/12/19 03:52:35;;;;;;;7.30;4.50;;;;;;;6.68;83.88;99307.34;105437;1253;61170;-27
2023/12/19 03:55:03;;;;;;;4.60;3.50;;;;;;;6.42;84.72;99306.69;105658;1253;73537;-26
2023/12/19 03:57:31;;;;;;;5.00;3.40;;;;;;;6.42;85.52;99300.79;105761;1253;74157;-27
2023/12/19 03:59:58;;;;;;;5.30;3.40;;;;;;;6.95;83.76;99295.34;105646;1259;71466;-26
2023/12/19 04:02:25;;;;;;;7.70;3.90;;;;;;;7.03;82.85;99293.50;105675;1254;61084;-26
2023/12/19 04:04:52;;;;;;;6.50;4.50;;;;;;;6.85;83.33;99298.41;105707;1253;61059;-27
2023/12/19 04:07:19;;;;;;;6.80;4.90;;;;;;;6.58;84.21;99293.16;105714;1253;74906;-26
2023/12/19 04:09:47;;;;;;;4.50;3.10;;;;;;;6.35;85.00;99288.63;105670;1253;74212;-26
2023/12/19 04:12:14;;;;;;;6.00;3.90;;;;;;;6.71;84.67;99281.45;105752;1253;72460;-26
2023/12/19 04:14:40;;;;;;;7.00;4.40;;;;;;;7.10;82.88;99269.91;105625;1257;61165;-26
2023/12/19 04:17:07;;;;;;;7.40;5.30;;;;;;;6.91;83.05;99260.60;105609;1257;61210;-26
2023/12/19 04:19:34;;;;;;;9.20;5.50;;;;;;;6.80;83.46;99270.40;105584;1253;74475;-27
2023/12/19 04:22:02;;;;;;;10.50;5.60;;;;;;;6.58;83.90;99275.52;105522;1253;74788;-26
2023/12/19 04:24:29;;;;;;;6.50;4.30;;;;;;;6.39;84.97;99279.61;105520;1258;73195;-26
2023/12/19 04:26:56;;;;;;;6.50;4.60;;;;;;;6.78;84.03;99278.98;105523;1254;61105;-28
2023/12/19 04:29:23;;;;;;;7.70;5.20;;;;;;;6.94;83.03;99275.20;105598;1258;61117;-27
2023/12/19 04:31:50;;;;;;;10.90;6.20;;;;;;;6.68;83.65;99275.95;105293;1259;73881;-26
2023/12/19 04:34:17;;;;;;;9.80;6.00;;;;;;;6.44;84.44;99272.09;105684;1258;74149;-27
2023/12/19 04:36:44;;;;;;;8.10;5.10;;;;;;;6.30;84.97;99272.93;105744;1253;72671;-26
2023/12/19 04:39:11;;;;;;;8.80;5.90;;;;;;;6.51;84.80;99266.14;105662;1253;61217;-26
2023/12/19 04:41:38;;;;;;;10.60;6.70;;;;;;;6.78;83.66;99257.73;105767;1259;61105;-26
2023/12/19 04:44:05;;;;;;;9.50;6.00;;;;;;;6.75;83.25;99259.33;105628;1253;73767;-27
2023/12/19 04:46:32;;;;;;;10.10;6.00;;;;;;;6.54;83.71;99262.20;105644;1258;74307;-26
2023/12/19 04:48:59;;;;;;;7.70;5.00;;;;;;;6.21;85.14;99259.34;105491;1253;72732;-27
2023/12/19 04:51:26;;;;;;;15.60;6.70;;;;;;;6.41;85.22;99258.45;105600;1253;62396;-26
2023/12/19 04:53:53;;;;;;;10.40;6.30;;;;;;;6.76;83.52;99250.83;105415;1263;61206;-26
2023/12/19 04:56:20;;;;;;;11.80;6.80;;;;;;;6.75;83.08;99254.67;105597;1253;74220;-27
2023/12/19 04:58:47;;;;;;;12.60;7.50;;;;;;;6.57;83.52;99254.77;105677;1258;74298;-27
2023/12/19 05:01:14;;;;;;;13.80;8.40;;;;;;;6.35;83.98;99254.16;105562;1255;72570;-26
2023/12/19 05:03:41;;;;;;;13.00;7.80;;;;;;;6.25;84.78;99258.54;105488;1254;61716;-26
2023/12/19 05:06:16;;;;;;;10.60;7.30;;;;;;;6.62;83.73;99250.45;105519;1254;61047;-26
2023/12/19 05:08:47;;;;;;;14.70;7.70;;;;;;;6.64;83.25;99246.89;105428;1254;73809;-26
2023/12/19 05:11:14;;;;;;;15.10;9.60;;;;;;;6.53;83.21;99247.36;105695;1254;74352;-27
2023/12/19 05:13:41;;;;;;;14.00;8.70;;;;;;;6.40;83.51;99245.58;105617;1253;72579;-26
2023/12/19 05:16:15;;;;;;;16.00;8.30;;;;;;;6.16;84.13;99249.08;105474;1255;61159;-26
2023/12/19 05:18:42;;;;;;;13.50;7.70;;;;;;;6.34;84.10;99244.23;105637;1259;61158;-26
2023/12/19 05:21:10;;;;;;;14.90;7.80;;;;;;;6.75;82.13;99235.03;105697;1254;73816;-27
2023/12/19 05:23:38;;;;;;;14.50;9.30;;;;;;;6.60;81.96;99237.48;105724;1259;74430;-27
2023/12/19 05:26:06;;;;;;;14.50;9.50;;;;;;;6.52;82.19;99234.15;105672;1261;72508;-27
2023/12/19 05:28:34;;;;;;;15.90;9.40;;;;;;;6.30;82.66;99230.65;105826;1253;61171;-26
2023/12/19 05:31:01;;;;;;;11.50;6.90;;;;;;;6.11;83.16;99233.88;105734;1259;61307;-26
2023/12/19 05:33:29;;;;;;;19.10;9.10;;;;;;;6.52;82.39;99225.20;105656;1253;73800;-26
2023/12/19 05:35:56;;;;;;;14.80;8.90;;;;;;;6.72;81.00;99216.04;105626;1254;74254;-27
2023/12/19 05:38:23;;;;;;;15.60;9.80;;;;;;;6.54;81.14;99213.16;105778;1259;72522;-27
2023/12/19 05:40:56;;;;;;;15.70;9.70;;;;;;;6.43;81.56;99215.54;105655;1254;61052;-27
2023/12/19 05:43:23;;;;;;;17.80;10.50;;;;;;;6.20;82.25;99215.58;105843;1259;61123;-26
2023/12/19 05:45:50;;;;;;;12.80;7.40;;;;;;;6.02;83.01;99216.30;105682;1254;73907;-27
2023/12/19 05:48:17;;;;;;;14.20;9.30;;;;;;;6.38;81.89;99216.88;105697;1258;74292;-27
2023/12/19 05:50:44;;;;;;;17.00;9.20;;;;;;;6.59;80.86;99209.04;105682;1258;72489;-27
2023/12/19 05:53:11;;;;;;;19.40;10.10;;;;;;;6.50;80.59;99209.09;105693;1253;61399;-26
2023/12/19 05:55:38;;;;;;;16.00;9.50;;;;;;;6.34;81.07;99212.67;105470;1258;61192;-27
2023/12/19 05:58:05;;;;;;;18.00;10.60;;;;;;;6.14;81.24;99224.70;105595;1257;74203;-27
2023/12/19 06:00:32;;;;;;;18.50;8.10;;;;;;;5.94;82.18;99223.63;105744;1259;74322;-27
2023/12/19 06:02:59;;;;;;;13.90;8.40;;;;;;;6.29;81.54;99225.56;105601;1254;72755;-27
2023/12/19 06:05:26;;;;;;;15.80;9.20;;;;;;;6.60;80.24;99224.84;105507;1259;61749;-27
2023/12/19 06:07:53;;;;;;;12.30;8.10;;;;;;;6.52;79.90;99228.69;105555;1254;62946;-26
2023/12/19 06:10:20;;;;;;;13.50;9.20;;;;;;;6.27;80.34;99218.97;105620;1253;73850;-27
2023/12/19 06:12:47;;;;;;;20.80;10.90;;;;;;;5.97;81.39;99218.48;105615;1255;74429;-26
2023/12/19 06:15:14;;;;;;;14.80;7.90;;;;;;;5.89;82.23;99220.30;105563;1254;72432;-26
2023/12/19 06:17:46;;;;;;;13.60;7.30;;;;;;;6.39;80.78;99216.50;105778;1253;61106;-27
2023/12/19 06:20:13;;;;;;;14.70;9.10;;;;;;;6.74;79.31;99210.23;105770;1259;61155;-27
2023/12/19 06:22:41;;;;;;;18.40;9.80;;;;;;;6.61;78.95;99204.13;105724;1253;73833;-26
2023/12/19 06:25:08;;;;;;;14.50;8.10;;;;;;;6.46;79.35;99213.33;105776;1259;73269;-27
2023/12/19 06:27:36;;;;;;;17.80;10.50;;;;;;;6.17;79.87;99212.85;105681;1253;72729;-27
2023/12/19 06:30:04;;;;;;;14.80;8.00;;;;;;;5.94;80.75;99226.59;105367;1253;61060;-27
2023/12/19 06:32:47;;;;;;;11.60;7.80;;;;;;;6.15;80.84;99228.60;105660;1260;61188;-27
2023/12/19 06:35:14;;;;;;;11.60;8.10;;;;;;;6.60;79.19;99231.47;105657;1258;73862;-27
2023/12/19 06:37:41;;;;;;;12.90;8.60;;;;;;;6.47;79.07;99226.90;105681;1253;74884;-27
2023/12/19 06:40:09;;;;;;;15.30;8.50;;;;;;;6.38;78.96;99235.54;105730;1259;72982;-27
2023/12/19 06:42:35;;;;;;;14.10;9.60;;;;;;;6.22;79.57;99228.39;105604;1258;61166;-27
2023/12/19 06:45:03;;;;;;;15.10;8.80;;;;;;;6.03;80.22;99224.02;105696;1254;61170;-27
2023/12/19 06:47:31;;;;;;;13.00;7.40;;;;;;;6.08;80.81;99226.79;105702;1257;73781;-28
2023/12/19 06:49:58;;;;;;;12.70;8.50;;;;;;;6.64;79.13;99227.75;105653;1259;73217;-27
2023/12/19 06:52:25;;;;;;;14.00;7.60;;;;;;;6.78;78.10;99222.92;105511;1258;72646;-27
2023/12/19 06:54:52;;;;;;;16.50;8.10;;;;;;;6.62;77.97;99226.30;105547;1260;61252;-27
2023/12/19 06:57:19;;;;;;;13.70;8.50;;;;;;;6.43;78.46;99213.30;105581;1260;61113;-26
2023/12/19 06:59:46;;;;;;;10.30;7.50;;;;;;;6.10;79.41;99204.47;105787;1258;73773;-27
2023/12/19 07:02:13;;;;;;;10.10;5.90;;;;;;;6.00;80.08;99198.13;105668;1259;74169;-27
2023/12/19 07:04:40;;;;;;;13.80;8.10;;;;;;;6.50;78.88;99193.73;105658;1258;72617;-27
2023/12/19 07:07:08;;;;;;;10.40;6.90;;;;;;;6.68;77.57;99188.46;105568;1257;61049;-27
2023/12/19 07:09:37;;;;;;;12.80;8.00;;;;;;;6.44;77.69;99181.54;105699;1258;61211;-27
2023/12/19 07:12:05;;;;;;;11.20;6.80;;;;;;;6.34;77.83;99183.67;105671;1262;73652;-27
2023/12/19 07:14:32;;;;;;;11.70;8.30;;;;;;;6.11;78.59;99185.61;105666;1259;75036;-27
2023/12/19 07:16:58;;;;;;;11.20;7.40;;;;;;;6.01;79.50;99186.39;105729;1253;73215;-27
2023/12/19 07:19:25;;;;;;;11.70;7.00;;;;;;;6.64;78.13;99177.73;105704;1254;61155;-27
2023/12/19 07:21:52;;;;;;;11.30;6.70;;;;;;;6.85;76.59;99169.66;105671;1260;61392;-26
2023/12/19 07:24:20;;;;;;;11.30;7.30;;;;;;;6.78;76.35;99173.70;105723;1260;73739;-26
2023/12/19 07:26:47;;;;;;;13.50;6.60;;;;;;;6.69;75.94;99170.80;105633;1259;74405;-26
2023/12/19 07:29:13;;;;;;;13.50;7.60;;;;;;;6.39;75.86;99160.14;105663;1254;73298;-26
2023/12/19 07:31:40;;;;;;;12.60;7.70;;;;;;;6.28;76.47;99162.66;105711;1254;61207;-27
2023/12/19 07:34:07;;;;;;;9.50;6.20;;;;;;;6.13;76.49;99153.08;105295;1260;61187;-26
2023/12/19 07:36:35;;;;;;;11.20;6.40;;;;;;;6.62;75.89;99153.16;105517;1260;73791;-26
2023/12/19 07:39:03;;;;;;;12.20;6.30;;;;;;;6.91;74.20;99150.80;105528;1258;74192;-26
2023/12/19 07:41:32;;;;;;;11.90;7.00;;;;;;;6.69;74.22;99145.45;105563;1254;73065;-26
2023/12/19 07:43:59;;;;;;;12.90;7.20;;;;;;;6.66;74.09;99156.92;105486;1254;61231;-26
2023/12/19 07:46:26;;;;;;;13.80;7.10;;;;;;;6.39;74.77;99153.38;105645;1260;61189;-26
2023/12/19 07:48:53;;;;;;;9.90;6.30;;;;;;;6.08;74.73;99131.13;105707;1260;73622;-26
2023/12/19 07:51:23;;;;;;;9.90;6.70;;;;;;;6.11;75.17;99138.52;105776;1259;74708;-26
2023/12/19 07:53:50;;;;;;;9.60;6.60;;;;;;;6.62;74.43;99139.02;105389;1260;70266;-26
2023/12/19 07:56:17;;;;;;;10.00;6.90;;;;;;;6.82;73.51;99143.27;105596;1254;61231;-26
2023/12/19 07:58:44;;;;;;;12.70;7.40;;;;;;;6.70;73.79;99140.77;105566;1260;61186;-26
2023/12/19 08:01:12;;;;;;;8.00;5.20;;;;;;;6.58;73.13;99141.52;105539;1257;73877;-26
2023/12/19 08:03:40;;;;;;;10.50;6.60;;;;;;;6.40;73.65;99148.30;105606;1260;74284;-27
2023/12/19 08:06:07;;;;;;;9.50;5.90;;;;;;;6.22;73.98;99151.64;105636;1259;72599;-26
2023/12/19 08:08:34;;;;;;;9.40;5.40;;;;;;;6.54;74.05;99150.23;105663;1259;61158;-26
2023/12/19 08:11:01;;;;;;;11.50;5.80;;;;;;;6.95;71.86;99156.97;105549;1257;61176;-26
2023/12/19 08:13:28;;;;;;;8.80;5.00;;;;;;;6.90;70.54;99145.87;105574;1258;74135;-26
2023/12/19 08:15:56;;;;;;;9.00;5.90;;;;;;;6.82;70.92;99147.77;105624;1259;74296;-26
2023/12/19 08:18:23;;;;;;;7.60;4.80;;;;;;;6.63;71.28;99157.27;105534;1258;72614;-26
2023/12/19 08:20:51;;;;;;;6.70;5.10;;;;;;;6.51;71.55;99152.98;105449;1260;61141;-26
2023/12/19 08:23:18;;;;;;;7.90;5.80;;;;;;;6.46;72.09;99146.41;105729;1264;61959;-26
2023/12/19 08:25:45;;;;;;;9.70;5.90;;;;;;;6.27;73.00;99130.68;105698;1257;72819;-26
2023/12/19 08:28:12;;;;;;;9.20;5.80;;;;;;;6.82;72.58;99137.07;105562;1259;73368;-26
2023/12/19 08:30:39;;;;;;;8.50;4.30;;;;;;;7.16;71.15;99122.76;105675;1254;72402;-26
2023/12/19 08:33:06;;;;;;;9.00;5.60;;;;;;;7.22;70.32;99121.88;105525;1259;61125;-26
2023/12/19 08:35:33;;;;;;;9.40;6.10;;;;;;;7.07;69.64;99115.93;105676;1259;61169;-26
2023/12/19 08:38:00;;;;;;;10.30;5.30;;;;;;;7.03;69.66;99123.49;105670;1260;73627;-26
2023/12/19 08:40:27;;;;;;;9.50;5.60;;;;;;;6.86;70.43;99122.33;105581;1260;74177;-26
2023/12/19 08:42:54;;;;;;;7.10;5.00;;;;;;;6.76;70.27;99114.83;105610;1254;72451;-26
2023/12/19 08:45:23;;;;;;;7.70;5.20;;;;;;;6.66;69.96;99116.63;105499;1260;61178;-27
2023/12/19 08:47:50;;;;;;;7.50;4.30;;;;;;;6.91;69.67;99111.11;105666;1260;61172;-26
2023/12/19 08:50:18;;;;;;;7.40;5.40;;;;;;;7.50;67.65;99112.05;105696;1258;72783;-26
2023/12/19 08:52:47;;;;;;;8.70;5.30;;;;;;;7.71;66.31;99109.27;105734;1257;73548;-26
2023/12/19 08:55:14;;;;;;;7.30;5.10;;;;;;;7.72;66.02;99107.29;105749;1254;72682;-26
2023/12/19 08:57:42;;;;;;;8.90;5.60;;;;;;;7.62;66.63;99099.49;105658;1258;61143;-26
2023/12/19 09:00:17;;;;;;;7.70;5.40;;;;;;;7.55;66.53;99089.42;105636;1261;61176;-26
2023/12/19 09:02:44;;;;;;;8.10;5.20;;;;;;;7.52;66.64;99083.93;105638;1257;74442;-26
2023/12/19 09:05:13;;;;;;;12.50;5.90;;;;;;;7.45;66.14;99075.30;105733;1260;75173;-26
2023/12/19 09:07:41;;;;;;;9.40;5.70;;;;;;;7.49;66.16;99074.65;105710;1258;71542;-26
2023/12/19 09:10:10;;;;;;;6.40;4.30;;;;;;;7.48;65.94;99066.13;105663;1253;61060;-26
2023/12/19 09:12:37;;;;;;;11.20;5.30;;;;;;;7.44;65.79;99058.43;105722;1259;61279;-26
2023/12/19 09:15:06;;;;;;;7.90;5.50;;;;;;;7.52;65.69;99053.88;105795;1254;74447;-26
2023/12/19 09:17:33;;;;;;;8.10;5.10;;;;;;;7.66;65.05;99038.09;105672;1259;72912;-26
2023/12/19 09:20:04;;;;;;;10.00;5.40;;;;;;;7.85;64.30;99031.78;105387;1253;72671;-26
2023/12/19 09:22:33;;;;;;;8.10;4.80;;;;;;;8.11;62.96;99021.84;105439;1259;61161;-26
2023/12/19 09:25:00;;;;;;;7.10;5.50;;;;;;;8.39;62.84;99031.58;105620;1260;61247;-26
2023/12/19 09:27:27;;;;;;;8.40;5.70;;;;;;;8.68;61.19;99030.16;105611;1253;73741;-26
2023/12/19 09:29:55;;;;;;;8.20;4.60;;;;;;;8.84;59.21;99026.73;105735;1259;75770;-26
2023/12/19 09:34:58;;;;;;;7.20;4.50;;;;;;;9.11;58.72;99013.02;102655;1294;600717;-24
2023/12/19 09:37:30;;;;;;;6.90;4.50;;;;;;;9.29;57.27;99001.42;104833;1272;61129;-25
2023/12/19 09:47:40;;;;;;;6.90;4.80;;;;;;;9.75;55.25;98990.44;102739;1292;599264;-25
2023/12/19 09:50:12;;;;;;;5.90;4.50;;;;;;;9.61;54.27;98983.13;104933;1266;61196;-25
2023/12/19 09:52:41;;;;;;;7.40;4.80;;;;;;;9.40;54.69;98982.02;104837;1266;61149;-25
2023/12/19 09:55:10;;;;;;;7.30;4.30;;;;;;;9.44;55.56;98982.61;108654;1264;72245;-25
2023/12/19 09:57:38;;;;;;;6.40;4.00;;;;;;;9.66;55.03;98979.86;108696;1264;74305;-26
2023/12/19 10:00:09;;;;;;;6.50;4.20;;;;;;;9.89;53.88;98980.41;108677;1264;73633;-26
2023/12/19 10:02:36;;;;;;;6.20;4.70;;;;;;;10.02;52.97;98967.12;108512;1263;60466;-26
2023/12/19 10:05:04;;;;;;;5.80;4.10;;;;;;;10.27;53.15;98972.23;108769;1261;59990;-26
2023/12/19 10:07:32;;;;;;;7.20;4.30;;;;;;;10.41;51.61;98966.75;108615;1261;72131;-25
2023/12/19 10:10:03;;;;;;;6.80;4.50;;;;;;;10.56;51.78;98963.13;108936;1260;75407;-25
2023/12/19 10:12:31;;;;;;;6.10;4.70;;;;;;;10.58;50.24;98961.95;108934;1258;70931;-26
2023/12/19 10:15:13;;;;;;;5.80;4.40;;;;;;;10.72;50.64;98963.91;109006;1258;60054;-26
2023/12/19 10:18:04;;;;;;;4.60;3.50;;;;;;;10.80;50.70;98955.38;108957;1259;59069;-26
2023/12/19 10:20:32;;;;;;;6.60;4.50;;;;;;;10.70;49.33;98939.98;108877;1260;73148;-26
2023/12/19 10:23:04;;;;;;;6.10;4.20;;;;;;;10.80;48.71;98933.90;108995;1258;73099;-25
2023/12/19 10:25:32;;;;;;;6.30;4.40;;;;;;;10.98;48.99;98932.54;108863;1259;71417;-26
2023/12/19 10:28:12;;;;;;;6.30;3.70;;;;;;;10.99;47.88;98924.80;108998;1259;60126;-26
2023/12/19 10:30:40;;;;;;;5.10;3.50;;;;;;;10.87;48.11;98932.10;109030;1259;60016;-26
2023/12/19 10:33:08;;;;;;;6.60;3.90;;;;;;;10.91;48.20;98930.77;109055;1259;72032;-26
2023/12/19 10:35:37;;;;;;;7.40;4.10;;;;;;;11.03;48.36;98932.11;109007;1258;76549;-26
2023/12/19 10:38:08;;;;;;;6.80;4.10;;;;;;;11.07;47.81;98925.03;108866;1259;72661;-26
2023/12/19 10:40:37;;;;;;;6.10;3.90;;;;;;;11.11;47.83;98920.73;109008;1258;60410;-26
2023/12/19 10:43:05;;;;;;;5.30;3.60;;;;;;;11.12;47.80;98918.87;109006;1259;62234;-26
2023/12/19 10:45:33;;;;;;;5.30;3.70;;;;;;;11.03;47.72;98905.72;108986;1262;72208;-26
2023/12/19 10:48:01;;;;;;;5.20;3.70;;;;;;;10.90;47.83;98900.74;108976;1259;76597;-26
2023/12/19 10:50:29;;;;;;;6.10;3.70;;;;;;;11.03;47.79;98890.79;108962;1259;72294;-26
2023/12/19 10:53:00;;;;;;;6.50;4.00;;;;;;;10.98;47.56;98892.77;108951;1261;59915;-26
2023/12/19 10:55:33;;;;;;;5.70;3.90;;;;;;;10.95;46.71;98885.60;108803;1259;62064;-26
2023/12/19 10:58:02;;;;;;;6.00;4.40;;;;;;;10.86;47.35;98890.52;108824;1259;73362;-26
2023/12/19 11:00:30;;;;;;;4.70;3.70;;;;;;;10.91;47.91;98897.34;109005;1259;73535;-26
2023/12/19 11:03:19;;;;;;;7.60;4.40;;;;;;;11.00;47.62;98896.64;108812;1259;74935;-26
2023/12/19 11:05:47;;;;;;;5.20;4.20;;;;;;;10.88;47.35;98888.59;108881;1259;61109;-26
2023/12/19 11:08:17;;;;;;;5.00;3.60;;;;;;;10.95;47.84;98887.33;108912;1259;59608;-26
2023/12/19 11:10:57;;;;;;;7.60;4.50;;;;;;;10.82;48.15;98892.23;108817;1259;72382;-26
2023/12/19 11:13:25;;;;;;;6.50;4.00;;;;;;;10.84;48.82;98896.05;108874;1259;73300;-26
2023/12/19 11:15:56;;;;;;;5.30;3.90;;;;;;;10.84;48.40;98894.33;108975;1259;71428;-26
2023/12/19 11:18:34;;;;;;;7.20;4.80;;;;;;;10.84;49.04;98885.94;108843;1259;61162;-26
2023/12/19 11:21:07;;;;;;;6.40;4.00;;;;;;;10.93;48.88;98881.06;108892;1259;59866;-25
2023/12/19 11:23:42;;;;;;;5.50;4.10;;;;;;;10.96;48.83;98882.04;108939;1259;74553;-26
2023/12/19 11:26:33;;;;;;;6.20;4.40;;;;;;;11.08;49.00;98873.48;108844;1259;76503;-26
2023/12/19 11:29:00;;;;;;;7.10;4.20;;;;;;;10.91;47.88;98868.58;108773;1259;71876;-26
2023/12/19 11:31:32;;;;;;;6.80;3.80;;;;;;;10.99;48.70;98885.45;108909;1260;58933;-26
2023/12/19 11:34:24;;;;;;;5.30;3.90;;;;;;;10.98;48.36;98879.22;108955;1259;61921;-26
2023/12/19 11:37:02;;;;;;;5.30;3.90;;;;;;;11.03;48.30;98880.52;108908;1260;73033;-26
2023/12/19 11:39:33;;;;;;;5.00;3.30;;;;;;;11.01;48.38;98879.48;108769;1260;74931;-26
2023/12/19 11:42:01;;;;;;;5.90;3.40;;;;;;;11.13;48.08;98882.50;108932;1260;73698;-26
2023/12/19 11:44:38;;;;;;;6.50;4.40;;;;;;;11.07;48.23;98872.71;108862;1259;58885;-26